Time;durP1;ratioP1;P1;durP2;ratioP2;P2;SDS_P1;SDS_P2;PMS_P1;PMS_P2;Temp;Humidity;BMP_temperature;BMP_pressure;BME280_temperature;BME280_humidity;BME280_pressure;Samples;Min_cycle;Max_cycle;Signal;HPM_P1;HPM_P2
2020/12/24 00:01:54;;;;;;;1.07;1.07;;;;;;;;;;5007514;28;20209;-75
2020/12/24 00:04:20;;;;;;;0.10;0.10;;;;;;;;;;5000890;28;20198;-75
2020/12/24 00:06:47;;;;;;;0.77;0.77;;;;;;;;;;5002787;28;20282;-75
2020/12/24 00:09:13;;;;;;;0.10;0.10;;;;;;;;;;4993199;28;20221;-75
2020/12/24 00:11:40;;;;;;;0.57;0.57;;;;;;;;;;4996294;28;20234;-75
2020/12/24 00:14:06;;;;;;;0.10;0.10;;;;;;;;;;5018390;28;20205;-75
2020/12/24 00:16:33;;;;;;;0.10;0.10;;;;;;;;;;5000883;28;20477;-75
2020/12/24 00:19:00;;;;;;;0.10;0.10;;;;;;;;;;5020507;28;20272;-75
2020/12/24 00:21:26;;;;;;;0.10;0.10;;;;;;;;;;5000803;28;20276;-75
2020/12/24 00:23:53;;;;;;;0.17;0.17;;;;;;;;;;5020783;28;20527;-75
2020/12/24 00:26:19;;;;;;;0.10;0.10;;;;;;;;;;5001842;28;20198;-75
2020/12/24 00:28:46;;;;;;;0.10;0.10;;;;;;;;;;5000603;28;20234;-75
2020/12/24 00:31:13;;;;;;;0.20;0.20;;;;;;;;;;5015238;28;20228;-75
2020/12/24 00:33:39;;;;;;;0.10;0.10;;;;;;;;;;5003782;28;20390;-75
2020/12/24 00:36:06;;;;;;;0.50;0.50;;;;;;;;;;5001494;28;20202;-74
2020/12/24 00:38:33;;;;;;;0.10;0.10;;;;;;;;;;5008617;28;20229;-75
2020/12/24 00:40:59;;;;;;;0.10;0.10;;;;;;;;;;5021846;28;20202;-75
2020/12/24 00:43:26;;;;;;;0.10;0.10;;;;;;;;;;5004378;28;20390;-75
2020/12/24 00:45:52;;;;;;;0.10;0.10;;;;;;;;;;5018373;28;20229;-75
2020/12/24 00:48:18;;;;;;;0.10;0.10;;;;;;;;;;5024144;28;20634;-75
2020/12/24 00:50:45;;;;;;;0.10;0.10;;;;;;;;;;5005649;28;20202;-74
2020/12/24 00:53:12;;;;;;;0.10;0.10;;;;;;;;;;5004590;28;20421;-75
2020/12/24 00:55:39;;;;;;;0.10;0.10;;;;;;;;;;5021612;28;20501;-75
2020/12/24 00:58:05;;;;;;;0.10;0.10;;;;;;;;;;5003986;28;20199;-75
2020/12/24 01:00:32;;;;;;;0.10;0.10;;;;;;;;;;5002743;28;20234;-74
2020/12/24 01:02:58;;;;;;;0.10;0.10;;;;;;;;;;5008012;28;20268;-75
2020/12/24 01:05:25;;;;;;;0.10;0.10;;;;;;;;;;5006775;28;20204;-75
2020/12/24 01:07:51;;;;;;;0.10;0.10;;;;;;;;;;5004100;28;20233;-75
2020/12/24 01:10:18;;;;;;;2.20;2.20;;;;;;;;;;5018456;28;20298;-74
2020/12/24 01:12:45;;;;;;;0.10;0.10;;;;;;;;;;5025713;28;20232;-75
2020/12/24 01:15:11;;;;;;;0.10;0.10;;;;;;;;;;5005214;28;20229;-75
2020/12/24 01:17:38;;;;;;;0.10;0.10;;;;;;;;;;5006003;28;20201;-74
2020/12/24 01:20:05;;;;;;;0.57;0.57;;;;;;;;;;5021171;28;20545;-75
2020/12/24 01:22:31;;;;;;;0.10;0.10;;;;;;;;;;5040283;28;20201;-74
2020/12/24 01:24:58;;;;;;;0.10;0.10;;;;;;;;;;5005798;28;20537;-75
2020/12/24 01:27:25;;;;;;;0.20;0.20;;;;;;;;;;5003444;28;20210;-75
2020/12/24 01:29:51;;;;;;;0.53;0.53;;;;;;;;;;5020830;28;20245;-75
2020/12/24 01:32:18;;;;;;;0.20;0.20;;;;;;;;;;5003929;28;20203;-75
2020/12/24 01:34:45;;;;;;;0.10;0.10;;;;;;;;;;5002381;28;20202;-75
2020/12/24 01:37:11;;;;;;;0.10;0.10;;;;;;;;;;5002953;28;20230;-75
2020/12/24 01:39:38;;;;;;;0.10;0.10;;;;;;;;;;5018808;28;20195;-74
2020/12/24 01:42:04;;;;;;;0.17;0.17;;;;;;;;;;5025308;28;20209;-75
2020/12/24 01:44:31;;;;;;;0.10;0.10;;;;;;;;;;5024790;28;20272;-75
2020/12/24 01:46:57;;;;;;;0.10;0.10;;;;;;;;;;5006954;28;20497;-75
2020/12/24 01:49:24;;;;;;;0.20;0.20;;;;;;;;;;5038751;28;20293;-73
2020/12/24 01:51:51;;;;;;;0.20;0.20;;;;;;;;;;5006118;28;20240;-74
2020/12/24 01:54:18;;;;;;;0.10;0.10;;;;;;;;;;5024740;28;20283;-74
2020/12/24 01:56:45;;;;;;;0.10;0.10;;;;;;;;;;5006215;28;20205;-74
2020/12/24 01:59:14;;;;;;;0.10;0.10;;;;;;;;;;5024729;28;20425;-74
2020/12/24 02:01:42;;;;;;;0.10;0.10;;;;;;;;;;5003942;28;20202;-74
2020/12/24 02:04:09;;;;;;;0.10;0.10;;;;;;;;;;5025192;28;20293;-74
2020/12/24 02:06:36;;;;;;;0.10;0.10;;;;;;;;;;5008144;28;20197;-74
2020/12/24 02:09:02;;;;;;;0.10;0.10;;;;;;;;;;5006109;28;20532;-74
2020/12/24 02:11:29;;;;;;;0.10;0.10;;;;;;;;;;5003524;28;20198;-74
2020/12/24 02:13:56;;;;;;;0.10;0.10;;;;;;;;;;5022797;28;20389;-74
2020/12/24 02:16:22;;;;;;;0.20;0.20;;;;;;;;;;5002908;28;20241;-74
2020/12/24 02:18:49;;;;;;;0.10;0.10;;;;;;;;;;4998969;28;20233;-74
2020/12/24 02:21:17;;;;;;;0.13;0.13;;;;;;;;;;5019064;28;20229;-73
2020/12/24 02:23:43;;;;;;;0.10;0.10;;;;;;;;;;5020067;28;20205;-74
2020/12/24 02:26:10;;;;;;;0.10;0.10;;;;;;;;;;5004703;28;20498;-74
2020/12/24 02:28:36;;;;;;;0.10;0.10;;;;;;;;;;5024090;28;20293;-73
2020/12/24 02:31:04;;;;;;;0.10;0.10;;;;;;;;;;5002537;28;20494;-73
2020/12/24 02:33:30;;;;;;;0.10;0.10;;;;;;;;;;5005565;28;20200;-74
2020/12/24 02:35:57;;;;;;;0.10;0.10;;;;;;;;;;5005947;28;20244;-73
2020/12/24 02:38:24;;;;;;;0.10;0.10;;;;;;;;;;5001341;28;20194;-74
2020/12/24 02:40:51;;;;;;;0.10;0.10;;;;;;;;;;4997344;28;20515;-74
2020/12/24 02:43:17;;;;;;;0.10;0.10;;;;;;;;;;5005466;28;20225;-74
2020/12/24 02:45:44;;;;;;;0.10;0.10;;;;;;;;;;5020406;28;20609;-73
2020/12/24 02:48:10;;;;;;;0.10;0.10;;;;;;;;;;5005318;28;20201;-74
2020/12/24 02:50:37;;;;;;;0.10;0.10;;;;;;;;;;5005689;28;20205;-74
2020/12/24 02:53:03;;;;;;;0.20;0.20;;;;;;;;;;5002364;28;20308;-74
2020/12/24 02:55:30;;;;;;;0.10;0.10;;;;;;;;;;5001039;28;20336;-74
2020/12/24 02:57:57;;;;;;;0.10;0.10;;;;;;;;;;5011619;28;20563;-74
2020/12/24 03:00:23;;;;;;;0.10;0.10;;;;;;;;;;5020506;28;20204;-73
2020/12/24 03:02:50;;;;;;;0.10;0.10;;;;;;;;;;5001134;28;20229;-74
2020/12/24 03:05:16;;;;;;;4.40;3.63;;;;;;;;;;4998083;28;20240;-74
2020/12/24 03:07:48;;;;;;;0.10;0.10;;;;;;;;;;5038406;28;20227;-74
2020/12/24 03:10:14;;;;;;;0.20;0.20;;;;;;;;;;5036255;28;20259;-74
2020/12/24 03:12:41;;;;;;;0.10;0.10;;;;;;;;;;5004559;28;20204;-74
2020/12/24 03:15:08;;;;;;;0.10;0.10;;;;;;;;;;5021295;28;20468;-73
2020/12/24 03:17:35;;;;;;;0.10;0.10;;;;;;;;;;5005515;28;20205;-73
2020/12/24 03:20:01;;;;;;;0.10;0.10;;;;;;;;;;5006513;28;20202;-74
2020/12/24 03:22:28;;;;;;;0.30;0.30;;;;;;;;;;5002795;28;20243;-74
2020/12/24 03:24:54;;;;;;;0.10;0.10;;;;;;;;;;5011476;28;20419;-74
2020/12/24 03:27:21;;;;;;;0.10;0.10;;;;;;;;;;4994030;28;20247;-74
2020/12/24 03:29:48;;;;;;;0.10;0.10;;;;;;;;;;5020325;28;20446;-74
2020/12/24 03:32:14;;;;;;;0.10;0.10;;;;;;;;;;4992012;28;20226;-74
2020/12/24 03:34:41;;;;;;;0.10;0.10;;;;;;;;;;4998850;28;20236;-74
2020/12/24 03:37:07;;;;;;;0.20;0.20;;;;;;;;;;5004862;28;20247;-75
2020/12/24 03:39:33;;;;;;;0.10;0.10;;;;;;;;;;5021353;28;20213;-75
2020/12/24 03:42:00;;;;;;;0.10;0.10;;;;;;;;;;5032903;28;20205;-74
2020/12/24 03:44:26;;;;;;;0.10;0.10;;;;;;;;;;4998980;28;20311;-75
2020/12/24 03:46:54;;;;;;;0.10;0.10;;;;;;;;;;4999172;28;20202;-75
2020/12/24 03:49:20;;;;;;;0.10;0.10;;;;;;;;;;5014544;28;20225;-75
2020/12/24 03:51:47;;;;;;;0.10;0.10;;;;;;;;;;5004402;28;20244;-75
2020/12/24 03:54:13;;;;;;;0.10;0.10;;;;;;;;;;5008521;28;20254;-75
2020/12/24 03:56:40;;;;;;;0.20;0.20;;;;;;;;;;4996637;28;20234;-75
2020/12/24 03:59:06;;;;;;;0.20;0.20;;;;;;;;;;4992438;28;20397;-74
2020/12/24 04:01:33;;;;;;;0.13;0.13;;;;;;;;;;4992918;28;20244;-75
2020/12/24 04:04:00;;;;;;;0.10;0.10;;;;;;;;;;4995259;28;20355;-75
2020/12/24 04:06:26;;;;;;;0.10;0.10;;;;;;;;;;4996762;28;20198;-75
2020/12/24 04:08:53;;;;;;;0.10;0.10;;;;;;;;;;4994793;28;20228;-76
2020/12/24 04:11:19;;;;;;;0.10;0.10;;;;;;;;;;4996847;28;20205;-75
2020/12/24 04:13:46;;;;;;;0.17;0.17;;;;;;;;;;5016853;28;20272;-76
2020/12/24 04:16:13;;;;;;;0.10;0.10;;;;;;;;;;5036630;28;20231;-75
2020/12/24 04:18:39;;;;;;;0.10;0.10;;;;;;;;;;5019993;28;20434;-75
2020/12/24 04:21:06;;;;;;;0.10;0.10;;;;;;;;;;5005768;28;20324;-75
2020/12/24 04:23:33;;;;;;;0.10;0.10;;;;;;;;;;5002668;28;20444;-76
2020/12/24 04:25:59;;;;;;;0.10;0.10;;;;;;;;;;4997867;28;20234;-76
2020/12/24 04:28:25;;;;;;;0.10;0.10;;;;;;;;;;5012216;28;20506;-75
2020/12/24 04:30:51;;;;;;;0.10;0.10;;;;;;;;;;5018753;28;20245;-76
2020/12/24 04:33:18;;;;;;;0.10;0.10;;;;;;;;;;5006170;28;20201;-75
2020/12/24 04:35:44;;;;;;;0.10;0.10;;;;;;;;;;5023564;28;20558;-76
2020/12/24 04:38:11;;;;;;;0.10;0.10;;;;;;;;;;5017134;28;20233;-75
2020/12/24 04:40:38;;;;;;;0.20;0.20;;;;;;;;;;5008105;28;20253;-75
2020/12/24 04:43:04;;;;;;;0.10;0.10;;;;;;;;;;5016689;28;20228;-75
2020/12/24 04:45:31;;;;;;;0.13;0.13;;;;;;;;;;4994016;28;20240;-75
2020/12/24 04:47:58;;;;;;;0.10;0.10;;;;;;;;;;5019333;28;20239;-76
2020/12/24 04:50:25;;;;;;;0.10;0.10;;;;;;;;;;5021322;28;20434;-75
2020/12/24 04:52:51;;;;;;;0.13;0.13;;;;;;;;;;5022337;28;20243;-75
2020/12/24 04:55:20;;;;;;;0.10;0.10;;;;;;;;;;5003705;28;20281;-76
2020/12/24 04:57:48;;;;;;;0.10;0.10;;;;;;;;;;5023316;28;20204;-75
2020/12/24 05:00:14;;;;;;;0.20;0.20;;;;;;;;;;5026290;28;20221;-75
2020/12/24 05:02:41;;;;;;;0.10;0.10;;;;;;;;;;4990730;28;20247;-75
2020/12/24 05:05:07;;;;;;;0.10;0.10;;;;;;;;;;5004666;28;20230;-76
2020/12/24 05:07:33;;;;;;;0.10;0.10;;;;;;;;;;5024699;28;20225;-75
2020/12/24 05:10:00;;;;;;;0.10;0.10;;;;;;;;;;5023280;28;20220;-76
2020/12/24 05:12:28;;;;;;;0.10;0.10;;;;;;;;;;4996384;28;20238;-76
2020/12/24 05:14:54;;;;;;;0.10;0.10;;;;;;;;;;5023073;28;20212;-75
2020/12/24 05:17:22;;;;;;;0.10;0.10;;;;;;;;;;5014637;28;20212;-76
2020/12/24 05:19:59;;;;;;;0.10;0.10;;;;;;;;;;4993759;28;20229;-76
2020/12/24 05:22:25;;;;;;;0.10;0.10;;;;;;;;;;5028730;28;20276;-76
2020/12/24 05:24:51;;;;;;;0.63;0.63;;;;;;;;;;5004987;28;20209;-75
2020/12/24 05:27:20;;;;;;;0.10;0.10;;;;;;;;;;5032636;28;20230;-76
2020/12/24 05:29:48;;;;;;;0.20;0.20;;;;;;;;;;5020373;28;20303;-75
2020/12/24 05:32:15;;;;;;;0.10;0.10;;;;;;;;;;5023822;28;20240;-75
2020/12/24 05:34:42;;;;;;;0.10;0.10;;;;;;;;;;5012959;28;20229;-75
2020/12/24 05:37:12;;;;;;;0.10;0.10;;;;;;;;;;4994803;28;20204;-75
2020/12/24 05:39:39;;;;;;;0.20;0.20;;;;;;;;;;5029973;28;20197;-76
2020/12/24 05:42:05;;;;;;;0.10;0.10;;;;;;;;;;5014692;28;20255;-75
2020/12/24 05:44:32;;;;;;;0.20;0.20;;;;;;;;;;5013462;28;20451;-75
2020/12/24 05:47:00;;;;;;;0.10;0.10;;;;;;;;;;4999113;28;20243;-75
2020/12/24 05:49:26;;;;;;;0.10;0.10;;;;;;;;;;5015769;28;20271;-75
2020/12/24 05:51:54;;;;;;;0.10;0.10;;;;;;;;;;5035414;28;20416;-75
2020/12/24 05:54:21;;;;;;;0.10;0.10;;;;;;;;;;5019838;28;20204;-75
2020/12/24 05:56:47;;;;;;;0.10;0.10;;;;;;;;;;5023301;28;20206;-76
2020/12/24 05:59:17;;;;;;;0.13;0.13;;;;;;;;;;5019628;28;20273;-75
2020/12/24 06:01:57;;;;;;;0.10;0.10;;;;;;;;;;5002923;28;20209;-76
2020/12/24 06:04:27;;;;;;;0.20;0.20;;;;;;;;;;5010661;28;20275;-75
2020/12/24 06:07:01;;;;;;;0.10;0.10;;;;;;;;;;5012374;28;20413;-75
2020/12/24 06:09:35;;;;;;;0.10;0.10;;;;;;;;;;5008767;28;20241;-75
2020/12/24 06:12:09;;;;;;;0.10;0.10;;;;;;;;;;5012891;28;20201;-75
2020/12/24 06:14:35;;;;;;;0.10;0.10;;;;;;;;;;5018273;28;20212;-75
2020/12/24 06:17:03;;;;;;;0.17;0.17;;;;;;;;;;5013284;28;20236;-75
2020/12/24 06:19:35;;;;;;;0.20;0.20;;;;;;;;;;5036145;28;20200;-75
2020/12/24 06:22:01;;;;;;;0.10;0.10;;;;;;;;;;5024349;28;20228;-75
2020/12/24 06:24:30;;;;;;;0.10;0.10;;;;;;;;;;5038480;28;20232;-75
2020/12/24 06:26:57;;;;;;;0.10;0.10;;;;;;;;;;5010235;28;20237;-75
2020/12/24 06:29:25;;;;;;;0.10;0.10;;;;;;;;;;5011211;28;20562;-76
2020/12/24 06:31:53;;;;;;;0.10;0.10;;;;;;;;;;5007425;28;20409;-75
2020/12/24 06:34:23;;;;;;;0.17;0.17;;;;;;;;;;5014099;28;20255;-76
2020/12/24 06:36:51;;;;;;;0.10;0.10;;;;;;;;;;4993894;28;20244;-75
2020/12/24 06:39:36;;;;;;;0.10;0.10;;;;;;;;;;5026103;28;20233;-76
2020/12/24 06:42:02;;;;;;;0.20;0.20;;;;;;;;;;5035061;28;20500;-75
2020/12/24 06:44:44;;;;;;;0.20;0.20;;;;;;;;;;5011816;28;20485;-76
2020/12/24 06:47:14;;;;;;;0.10;0.10;;;;;;;;;;5029963;28;20242;-76
2020/12/24 06:49:40;;;;;;;0.10;0.10;;;;;;;;;;5020122;28;20558;-76
2020/12/24 06:52:07;;;;;;;0.20;0.20;;;;;;;;;;5000073;28;20456;-75
2020/12/24 06:54:34;;;;;;;0.10;0.10;;;;;;;;;;5038024;28;20480;-75
2020/12/24 06:57:20;;;;;;;0.10;0.10;;;;;;;;;;5020923;28;20219;-76
2020/12/24 06:59:47;;;;;;;0.10;0.10;;;;;;;;;;4993812;28;20475;-75
2020/12/24 07:02:23;;;;;;;0.10;0.10;;;;;;;;;;4992941;28;20202;-75
2020/12/24 07:04:49;;;;;;;0.13;0.13;;;;;;;;;;5003944;28;20248;-75
2020/12/24 07:07:36;;;;;;;0.10;0.10;;;;;;;;;;5033563;28;20236;-75
2020/12/24 07:10:02;;;;;;;0.10;0.10;;;;;;;;;;5004542;28;20329;-76
2020/12/24 07:12:33;;;;;;;0.20;0.20;;;;;;;;;;5036461;28;20308;-75
2020/12/24 07:15:18;;;;;;;0.13;0.13;;;;;;;;;;5005627;28;20320;-75
2020/12/24 07:17:45;;;;;;;0.17;0.17;;;;;;;;;;5032131;28;20210;-75
2020/12/24 07:20:14;;;;;;;0.20;0.20;;;;;;;;;;5008626;28;20198;-75
2020/12/24 07:22:43;;;;;;;0.10;0.10;;;;;;;;;;5032467;28;20247;-75
2020/12/24 07:25:09;;;;;;;0.10;0.10;;;;;;;;;;5010608;28;20221;-76
2020/12/24 07:27:45;;;;;;;0.10;0.10;;;;;;;;;;5003181;28;20275;-76
2020/12/24 07:30:11;;;;;;;0.10;0.10;;;;;;;;;;5008412;28;20236;-75
2020/12/24 07:32:37;;;;;;;0.10;0.10;;;;;;;;;;5001789;28;20232;-75
2020/12/24 07:35:04;;;;;;;0.10;0.10;;;;;;;;;;5004064;28;20462;-76
2020/12/24 07:37:30;;;;;;;0.10;0.10;;;;;;;;;;5005637;28;20233;-75
2020/12/24 07:39:58;;;;;;;0.10;0.10;;;;;;;;;;5005011;28;20198;-75
2020/12/24 07:42:24;;;;;;;0.10;0.10;;;;;;;;;;5007736;28;20202;-75
2020/12/24 07:44:51;;;;;;;0.10;0.10;;;;;;;;;;5013487;28;20274;-76
2020/12/24 07:47:18;;;;;;;0.10;0.10;;;;;;;;;;5013188;28;20504;-75
2020/12/24 07:49:48;;;;;;;0.10;0.10;;;;;;;;;;5012570;28;20221;-75
2020/12/24 07:52:15;;;;;;;0.10;0.10;;;;;;;;;;5031489;28;20279;-75
2020/12/24 07:54:41;;;;;;;0.20;0.20;;;;;;;;;;5001124;28;20235;-76
2020/12/24 07:57:08;;;;;;;0.10;0.10;;;;;;;;;;5001197;28;20240;-75
2020/12/24 07:59:34;;;;;;;0.10;0.10;;;;;;;;;;5002533;28;20236;-75
2020/12/24 08:02:03;;;;;;;0.10;0.10;;;;;;;;;;5019047;28;20500;-75
2020/12/24 08:04:29;;;;;;;0.10;0.10;;;;;;;;;;5009994;28;20522;-75
2020/12/24 08:06:56;;;;;;;0.10;0.10;;;;;;;;;;5017806;28;20204;-75
2020/12/24 08:09:22;;;;;;;0.10;0.10;;;;;;;;;;4989555;28;20282;-75
2020/12/24 08:11:53;;;;;;;0.20;0.20;;;;;;;;;;5006140;28;20339;-77
2020/12/24 08:14:21;;;;;;;0.10;0.10;;;;;;;;;;4993451;28;20251;-75
2020/12/24 08:16:49;;;;;;;0.20;0.20;;;;;;;;;;5009640;28;20221;-74
2020/12/24 08:19:18;;;;;;;0.20;0.20;;;;;;;;;;5003702;28;20207;-75
2020/12/24 08:21:51;;;;;;;0.20;0.20;;;;;;;;;;5015656;28;20481;-76
2020/12/24 08:24:18;;;;;;;0.10;0.10;;;;;;;;;;5032846;28;20276;-74
2020/12/24 08:26:44;;;;;;;0.10;0.10;;;;;;;;;;4992775;28;20551;-74
2020/12/24 08:29:11;;;;;;;0.10;0.10;;;;;;;;;;5009538;28;20224;-74
2020/12/24 08:31:40;;;;;;;0.10;0.10;;;;;;;;;;5011613;28;20208;-74
2020/12/24 08:34:10;;;;;;;0.10;0.10;;;;;;;;;;4993547;28;20204;-74
2020/12/24 08:36:44;;;;;;;0.20;0.20;;;;;;;;;;4997649;28;20243;-74
2020/12/24 08:39:11;;;;;;;0.20;0.20;;;;;;;;;;4994719;28;20201;-75
2020/12/24 08:41:39;;;;;;;0.10;0.10;;;;;;;;;;5007000;28;20276;-74
2020/12/24 08:44:06;;;;;;;0.10;0.10;;;;;;;;;;5014977;28;20232;-74
2020/12/24 08:46:32;;;;;;;0.13;0.13;;;;;;;;;;5014705;28;20231;-74
2020/12/24 08:49:13;;;;;;;0.13;0.13;;;;;;;;;;5001568;28;20253;-74
2020/12/24 08:51:41;;;;;;;0.10;0.10;;;;;;;;;;5013093;28;20208;-74
2020/12/24 08:54:07;;;;;;;0.10;0.10;;;;;;;;;;5012714;28;20234;-75
2020/12/24 08:56:34;;;;;;;0.20;0.20;;;;;;;;;;5003503;28;20281;-74
2020/12/24 08:59:06;;;;;;;5.30;4.13;;;;;;;;;;5009535;28;20226;-74
2020/12/24 09:01:37;;;;;;;0.20;0.20;;;;;;;;;;5015404;28;20266;-75
2020/12/24 09:04:10;;;;;;;0.17;0.17;;;;;;;;;;5018404;28;20417;-74
2020/12/24 09:06:36;;;;;;;0.10;0.10;;;;;;;;;;5015934;28;20204;-74
2020/12/24 09:09:04;;;;;;;0.10;0.10;;;;;;;;;;5017438;28;20504;-74
2020/12/24 09:11:31;;;;;;;0.10;0.10;;;;;;;;;;4996790;28;20213;-74
2020/12/24 09:13:58;;;;;;;0.10;0.10;;;;;;;;;;5014127;28;20492;-74
2020/12/24 09:16:24;;;;;;;0.10;0.10;;;;;;;;;;5010916;28;20512;-74
2020/12/24 09:19:00;;;;;;;0.10;0.10;;;;;;;;;;5002735;28;20244;-75
2020/12/24 09:21:26;;;;;;;0.10;0.10;;;;;;;;;;5029378;28;20224;-74
2020/12/24 09:23:52;;;;;;;0.10;0.10;;;;;;;;;;5007021;28;20283;-74
2020/12/24 09:26:20;;;;;;;0.10;0.10;;;;;;;;;;5003803;28;20212;-74
2020/12/24 09:28:46;;;;;;;0.20;0.20;;;;;;;;;;4992788;28;20238;-75
2020/12/24 09:31:14;;;;;;;0.70;0.70;;;;;;;;;;5012805;28;20228;-75
2020/12/24 09:33:40;;;;;;;0.20;0.20;;;;;;;;;;5019023;28;20204;-74
2020/12/24 09:36:07;;;;;;;0.17;0.17;;;;;;;;;;5004172;28;20231;-74
2020/12/24 09:38:34;;;;;;;0.10;0.10;;;;;;;;;;5008019;28;20276;-74
2020/12/24 09:41:00;;;;;;;0.10;0.10;;;;;;;;;;5008271;28;20204;-74
2020/12/24 09:43:27;;;;;;;0.10;0.10;;;;;;;;;;5010779;28;20523;-73
2020/12/24 09:45:56;;;;;;;0.10;0.10;;;;;;;;;;5019239;28;20444;-75
2020/12/24 09:48:22;;;;;;;0.10;0.10;;;;;;;;;;5024729;28;20278;-73
2020/12/24 09:50:49;;;;;;;0.20;0.20;;;;;;;;;;5005838;28;20490;-76
2020/12/24 09:53:15;;;;;;;0.13;0.13;;;;;;;;;;5003682;28;20251;-76
2020/12/24 09:55:41;;;;;;;0.20;0.20;;;;;;;;;;5009940;28;20356;-75
2020/12/24 09:58:08;;;;;;;0.10;0.10;;;;;;;;;;5019412;28;20517;-75
2020/12/24 10:00:35;;;;;;;0.10;0.10;;;;;;;;;;5015440;28;20364;-73
2020/12/24 10:03:02;;;;;;;0.20;0.20;;;;;;;;;;5023380;28;20235;-70
2020/12/24 10:05:28;;;;;;;0.17;0.17;;;;;;;;;;5035991;28;20484;-66
2020/12/24 10:07:57;;;;;;;2.97;2.77;;;;;;;;;;5036620;28;20290;-63
2020/12/24 10:10:23;;;;;;;0.10;0.10;;;;;;;;;;5020192;28;20224;-65
2020/12/24 10:12:50;;;;;;;0.20;0.20;;;;;;;;;;5003305;28;20211;-68
2020/12/24 10:15:16;;;;;;;0.13;0.13;;;;;;;;;;5013211;28;20511;-65
2020/12/24 10:17:43;;;;;;;0.10;0.10;;;;;;;;;;5008370;28;20301;-65
2020/12/24 10:20:10;;;;;;;0.10;0.10;;;;;;;;;;5015437;28;20308;-64
2020/12/24 10:22:36;;;;;;;0.17;0.17;;;;;;;;;;4992596;28;20205;-64
2020/12/24 10:25:03;;;;;;;0.17;0.17;;;;;;;;;;5007333;28;20212;-75
2020/12/24 10:27:29;;;;;;;0.10;0.10;;;;;;;;;;5011549;28;20192;-72
2020/12/24 10:29:56;;;;;;;0.10;0.10;;;;;;;;;;5025115;28;20318;-68
2020/12/24 10:32:22;;;;;;;0.30;0.30;;;;;;;;;;5019454;28;20200;-72
2020/12/24 10:34:49;;;;;;;0.20;0.20;;;;;;;;;;5002590;28;20396;-65
2020/12/24 10:37:16;;;;;;;0.10;0.10;;;;;;;;;;5013858;28;20228;-66
2020/12/24 10:39:42;;;;;;;0.20;0.20;;;;;;;;;;5015923;28;20200;-65
2020/12/24 10:42:08;;;;;;;0.20;0.20;;;;;;;;;;5022045;28;20266;-72
2020/12/24 10:44:35;;;;;;;0.10;0.10;;;;;;;;;;5012835;28;20240;-72
2020/12/24 10:47:01;;;;;;;0.10;0.10;;;;;;;;;;5023527;28;20232;-72
2020/12/24 10:49:27;;;;;;;0.10;0.10;;;;;;;;;;5026876;28;20224;-70
2020/12/24 10:51:55;;;;;;;0.20;0.20;;;;;;;;;;5001730;28;20197;-68
2020/12/24 10:54:21;;;;;;;0.10;0.10;;;;;;;;;;5021768;28;20224;-67
2020/12/24 10:56:48;;;;;;;0.10;0.10;;;;;;;;;;5013820;28;20500;-65
2020/12/24 10:59:15;;;;;;;0.17;0.17;;;;;;;;;;5017031;28;20195;-68
2020/12/24 11:01:44;;;;;;;0.17;0.17;;;;;;;;;;5011939;28;20320;-67
2020/12/24 11:04:11;;;;;;;0.20;0.20;;;;;;;;;;5024552;28;20209;-68
2020/12/24 11:06:37;;;;;;;0.10;0.10;;;;;;;;;;5021113;28;20213;-65
2020/12/24 11:09:04;;;;;;;0.10;0.10;;;;;;;;;;5024303;28;20434;-68
2020/12/24 11:11:33;;;;;;;0.10;0.10;;;;;;;;;;5012893;28;20281;-76
2020/12/24 11:14:00;;;;;;;0.10;0.10;;;;;;;;;;5012841;28;20247;-77
2020/12/24 11:16:26;;;;;;;0.20;0.20;;;;;;;;;;5008880;28;20212;-72
2020/12/24 11:18:52;;;;;;;0.17;0.17;;;;;;;;;;5009539;28;20204;-74
2020/12/24 11:21:19;;;;;;;0.10;0.10;;;;;;;;;;5019228;28;20204;-72
2020/12/24 11:23:46;;;;;;;0.10;0.10;;;;;;;;;;5003996;28;20236;-75
2020/12/24 11:26:19;;;;;;;0.10;0.10;;;;;;;;;;4990830;28;20488;-76
2020/12/24 11:28:45;;;;;;;0.13;0.13;;;;;;;;;;5030167;28;20207;-77
2020/12/24 11:31:12;;;;;;;0.10;0.10;;;;;;;;;;5005154;28;20222;-67
2020/12/24 11:33:39;;;;;;;0.20;0.20;;;;;;;;;;5010918;28;20196;-65
2020/12/24 11:36:06;;;;;;;0.10;0.10;;;;;;;;;;4994210;28;20485;-64
2020/12/24 11:38:32;;;;;;;0.10;0.10;;;;;;;;;;5005759;28;20269;-64
2020/12/24 11:40:59;;;;;;;0.10;0.10;;;;;;;;;;5005963;28;20235;-75
2020/12/24 11:43:26;;;;;;;0.10;0.10;;;;;;;;;;5005169;28;20407;-75
2020/12/24 11:45:53;;;;;;;0.10;0.10;;;;;;;;;;5017903;28;20219;-80
2020/12/24 11:48:19;;;;;;;0.17;0.17;;;;;;;;;;5005382;28;20232;-76
2020/12/24 11:50:46;;;;;;;0.10;0.10;;;;;;;;;;5001926;28;20288;-74
2020/12/24 11:53:12;;;;;;;0.10;0.10;;;;;;;;;;5003575;28;20243;-76
2020/12/24 11:55:39;;;;;;;0.10;0.10;;;;;;;;;;5017661;28;20235;-79
2020/12/24 11:58:05;;;;;;;0.10;0.10;;;;;;;;;;5005270;28;20204;-79
2020/12/24 12:00:32;;;;;;;0.20;0.20;;;;;;;;;;5018855;28;20200;-75
2020/12/24 12:02:58;;;;;;;0.20;0.20;;;;;;;;;;5007242;28;20201;-76
2020/12/24 12:05:25;;;;;;;0.20;0.20;;;;;;;;;;5010335;28;20205;-79
2020/12/24 12:07:51;;;;;;;0.20;0.20;;;;;;;;;;5011032;28;20493;-78
2020/12/24 12:10:17;;;;;;;0.20;0.20;;;;;;;;;;5015509;28;20227;-78
2020/12/24 12:12:44;;;;;;;0.20;0.20;;;;;;;;;;5029484;28;20207;-78
2020/12/24 12:15:10;;;;;;;0.20;0.20;;;;;;;;;;5013789;28;20202;-78
2020/12/24 12:17:38;;;;;;;0.20;0.20;;;;;;;;;;5008972;28;20276;-78
2020/12/24 12:20:04;;;;;;;0.10;0.10;;;;;;;;;;5014294;28;20231;-79
2020/12/24 12:22:31;;;;;;;0.10;0.10;;;;;;;;;;5001224;28;20283;-78
2020/12/24 12:24:57;;;;;;;0.20;0.20;;;;;;;;;;5015246;28;20229;-67
2020/12/24 12:27:24;;;;;;;0.10;0.10;;;;;;;;;;5001470;28;20280;-66
2020/12/24 12:29:52;;;;;;;0.17;0.17;;;;;;;;;;5007272;28;20227;-66
2020/12/24 12:32:19;;;;;;;0.10;0.10;;;;;;;;;;5004167;28;20259;-77
2020/12/24 12:34:48;;;;;;;0.20;0.20;;;;;;;;;;5011339;28;20228;-78
2020/12/24 12:37:15;;;;;;;0.10;0.10;;;;;;;;;;5018568;28;20212;-78
2020/12/24 12:39:41;;;;;;;0.20;0.20;;;;;;;;;;5014671;28;20206;-75
2020/12/24 12:42:07;;;;;;;0.20;0.20;;;;;;;;;;5024750;28;20212;-74
2020/12/24 12:44:33;;;;;;;0.20;0.20;;;;;;;;;;5019348;28;20810;-73
2020/12/24 12:47:00;;;;;;;0.20;0.20;;;;;;;;;;5024813;28;20206;-71
2020/12/24 12:49:26;;;;;;;0.10;0.10;;;;;;;;;;5002710;28;20247;-66
2020/12/24 12:51:53;;;;;;;0.10;0.10;;;;;;;;;;5015710;28;20277;-67
2020/12/24 12:54:20;;;;;;;0.10;0.10;;;;;;;;;;4991822;28;20230;-71
2020/12/24 12:56:46;;;;;;;0.20;0.20;;;;;;;;;;5014814;28;20206;-74
2020/12/24 12:59:13;;;;;;;0.20;0.20;;;;;;;;;;5024708;28;20248;-73
2020/12/24 13:01:39;;;;;;;0.20;0.20;;;;;;;;;;5006133;28;20209;-72
2020/12/24 13:04:05;;;;;;;0.20;0.20;;;;;;;;;;5007341;28;20536;-64
2020/12/24 13:06:32;;;;;;;0.20;0.20;;;;;;;;;;5028357;28;20208;-65
2020/12/24 13:08:59;;;;;;;0.20;0.20;;;;;;;;;;5008629;28;20201;-66
2020/12/24 13:11:26;;;;;;;0.20;0.20;;;;;;;;;;5021293;28;20201;-63
2020/12/24 13:13:52;;;;;;;0.10;0.10;;;;;;;;;;5023625;28;20251;-66
2020/12/24 13:16:23;;;;;;;0.10;0.10;;;;;;;;;;5019399;28;20406;-62
2020/12/24 13:18:50;;;;;;;0.20;0.20;;;;;;;;;;5043175;28;20205;-68
2020/12/24 13:21:16;;;;;;;0.20;0.20;;;;;;;;;;5007723;28;20397;-64
2020/12/24 13:23:43;;;;;;;0.20;0.20;;;;;;;;;;5014469;28;20285;-64
2020/12/24 13:26:10;;;;;;;0.20;0.20;;;;;;;;;;5015531;28;20199;-74
2020/12/24 13:28:37;;;;;;;0.30;0.30;;;;;;;;;;5024916;28;20407;-63
2020/12/24 13:31:03;;;;;;;0.20;0.20;;;;;;;;;;5025134;28;20228;-68
2020/12/24 13:33:30;;;;;;;0.20;0.20;;;;;;;;;;5025203;28;20468;-64
2020/12/24 13:35:56;;;;;;;0.20;0.20;;;;;;;;;;5012578;28;20230;-72
2020/12/24 13:38:23;;;;;;;0.10;0.10;;;;;;;;;;4998527;28;20230;-76
2020/12/24 13:40:49;;;;;;;0.20;0.20;;;;;;;;;;5009098;28;20213;-74
2020/12/24 13:43:18;;;;;;;0.20;0.20;;;;;;;;;;5002368;28;20201;-74
2020/12/24 13:45:45;;;;;;;0.20;0.20;;;;;;;;;;5018946;28;20236;-75
2020/12/24 13:48:11;;;;;;;0.20;0.20;;;;;;;;;;5016824;28;20273;-75
2020/12/24 13:50:38;;;;;;;0.20;0.20;;;;;;;;;;5018353;28;20213;-75
2020/12/24 13:53:05;;;;;;;0.20;0.20;;;;;;;;;;4999341;28;20208;-74
2020/12/24 13:55:31;;;;;;;0.20;0.20;;;;;;;;;;5014190;28;20431;-75
2020/12/24 13:57:58;;;;;;;0.20;0.20;;;;;;;;;;5002417;28;20237;-76
2020/12/24 14:00:25;;;;;;;0.20;0.20;;;;;;;;;;5002328;28;20194;-76
2020/12/24 14:02:51;;;;;;;0.20;0.20;;;;;;;;;;5020155;28;20204;-75
2020/12/24 14:05:17;;;;;;;0.20;0.20;;;;;;;;;;5018694;28;20485;-77
2020/12/24 14:07:44;;;;;;;0.20;0.20;;;;;;;;;;5016062;28;20243;-73
2020/12/24 14:10:10;;;;;;;0.23;0.23;;;;;;;;;;5018794;28;20221;-75
2020/12/24 14:12:37;;;;;;;0.20;0.20;;;;;;;;;;5031916;28;20212;-75
2020/12/24 14:15:03;;;;;;;0.23;0.23;;;;;;;;;;5000296;28;20205;-71
2020/12/24 14:17:31;;;;;;;0.20;0.20;;;;;;;;;;5014356;28;20244;-75
2020/12/24 14:19:57;;;;;;;1.80;1.17;;;;;;;;;;5005815;28;20367;-75
2020/12/24 14:22:24;;;;;;;0.20;0.20;;;;;;;;;;5014580;28;20205;-75
2020/12/24 14:24:50;;;;;;;4.20;3.87;;;;;;;;;;5013496;28;20459;-75
2020/12/24 14:27:17;;;;;;;0.20;0.20;;;;;;;;;;5016579;28;20432;-75
2020/12/24 14:29:44;;;;;;;0.20;0.20;;;;;;;;;;5001979;28;20248;-75
2020/12/24 14:32:11;;;;;;;0.20;0.20;;;;;;;;;;5020856;28;20228;-75
2020/12/24 14:34:38;;;;;;;0.20;0.20;;;;;;;;;;5021320;28;20201;-76
2020/12/24 14:37:05;;;;;;;0.30;0.30;;;;;;;;;;5012537;28;20207;-75
2020/12/24 14:39:32;;;;;;;0.20;0.20;;;;;;;;;;5014595;28;20496;-75
2020/12/24 14:41:58;;;;;;;0.20;0.20;;;;;;;;;;5013322;28;20243;-75
2020/12/24 14:44:25;;;;;;;0.20;0.20;;;;;;;;;;5018526;28;20284;-75